createdAt,value
2019-05-17T00:07:30.859Z,10.53
2019-05-17T00:16:50.210Z,7.57
2019-05-17T00:20:58.864Z,7.70
2019-05-17T00:25:56.552Z,10.37
2019-05-17T00:30:53.962Z,5.53
2019-05-17T00:41:07.423Z,9.17
2019-05-17T00:46:06.676Z,10.80
2019-05-17T00:56:20.101Z,8.30
2019-05-17T01:06:33.636Z,6.77
2019-05-17T01:15:52.315Z,8.70
2019-05-17T01:26:07.490Z,10.50
2019-05-17T01:31:06.650Z,8.27
2019-05-17T01:36:06.597Z,8.83
2019-05-17T01:41:03.983Z,7.27
2019-05-17T01:51:17.737Z,7.47
2019-05-17T02:01:31.259Z,6.77
2019-05-17T02:06:28.609Z,9.20
2019-05-17T02:15:57.015Z,6.40
2019-05-17T02:20:56.882Z,6.53
2019-05-17T02:25:54.275Z,7.90
2019-05-17T02:36:07.781Z,10.40
2019-05-17T02:41:05.133Z,7.30
2019-05-17T02:46:03.658Z,7.47
2019-05-17T02:50:44.429Z,6.53
2019-05-17T02:55:43.518Z,9.27
2019-05-17T03:05:57.339Z,9.57
2019-05-17T03:15:16.322Z,8.37
2019-05-17T03:25:32.992Z,12.50
2019-05-17T03:35:46.462Z,12.23
2019-05-17T03:41:07.342Z,12.37
2019-05-17T03:45:45.380Z,11.43
2019-05-17T03:55:59.150Z,10.60
2019-05-17T04:06:13.444Z,11.10
2019-05-17T04:15:32.907Z,12.27
2019-05-17T04:25:47.405Z,13.40
2019-05-17T04:30:44.842Z,10.67
2019-05-17T04:40:58.240Z,11.70
2019-05-17T04:51:13.296Z,11.53
2019-05-17T05:01:27.323Z,10.03
2019-05-17T05:06:24.662Z,14.63
2019-05-17T05:11:23.327Z,12.63
2019-05-17T05:15:44.845Z,11.03
2019-05-17T05:20:43.429Z,10.23
2019-05-17T05:25:43.093Z,11.37
2019-05-17T05:35:57.340Z,11.77
2019-05-17T05:46:11.686Z,11.60
2019-05-17T05:51:13.407Z,9.07
2019-05-17T06:01:25.438Z,10.67
2019-05-17T06:06:22.679Z,8.77
2019-05-17T06:15:59.808Z,10.23
2019-05-17T06:20:57.757Z,9.77
2019-05-17T06:25:55.276Z,9.63
2019-05-17T06:36:09.445Z,10.83
2019-05-17T06:41:06.880Z,9.87
2019-05-17T06:51:22.076Z,9.43
2019-05-17T06:56:19.560Z,8.83
2019-05-17T07:06:33.000Z,9.87
2019-05-17T07:16:10.231Z,9.90
2019-05-17T07:26:24.579Z,8.70
2019-05-17T07:31:23.194Z,9.70
2019-05-17T07:41:36.970Z,9.33
2019-05-17T07:46:34.402Z,11.40
2019-05-17T07:51:32.274Z,9.10
2019-05-17T08:01:46.040Z,10.87
2019-05-17T08:11:59.832Z,11.37
2019-05-17T08:16:59.723Z,8.53
2019-05-17T08:21:02.381Z,9.10
2019-05-17T08:26:00.633Z,8.40
2019-05-17T08:36:20.068Z,17.17
2019-05-17T08:41:13.794Z,15.23
2019-05-17T08:46:11.142Z,10.07
2019-05-17T08:51:10.594Z,9.77
2019-05-17T08:56:09.883Z,11.10
2019-05-17T09:01:06.833Z,10.53
2019-05-17T09:06:04.626Z,10.03
2019-05-17T09:11:02.332Z,10.47
2019-05-17T09:20:21.136Z,10.87
2019-05-17T09:25:21.459Z,10.07
2019-05-17T09:35:33.802Z,10.30
2019-05-17T09:45:47.448Z,11.83
2019-05-17T09:56:00.710Z,10.30
2019-05-17T10:00:40.318Z,9.50
2019-05-17T10:05:40.261Z,10.97
2019-05-17T10:15:53.420Z,10.13
2019-05-17T10:19:56.274Z,9.27
2019-05-17T10:24:53.747Z,8.80
2019-05-17T10:29:51.195Z,9.37
2019-05-17T10:40:04.726Z,6.97
2019-05-17T10:50:20.407Z,8.40
2019-05-17T10:55:19.815Z,7.20
2019-05-17T11:00:19.545Z,7.33
2019-05-17T11:10:32.654Z,7.40
2019-05-17T11:19:51.391Z,6.83
2019-05-17T11:30:05.473Z,6.47
2019-05-17T11:40:19.093Z,6.50
2019-05-17T11:50:32.799Z,6.30
2019-05-17T12:00:46.291Z,6.77
2019-05-17T12:05:43.777Z,6.90
2019-05-17T12:15:56.858Z,5.80
2019-05-17T12:20:25.258Z,6.50
2019-05-17T12:25:22.441Z,5.70
2019-05-17T12:35:34.915Z,7.40
2019-05-17T12:46:00.277Z,8.17
2019-05-17T12:50:47.775Z,8.17
2019-05-17T13:01:01.475Z,7.80
2019-05-17T13:11:14.983Z,9.83
2019-05-17T13:20:35.441Z,8.20
2019-05-17T13:25:33.174Z,10.27
2019-05-17T13:30:30.521Z,10.07
2019-05-17T13:40:43.549Z,9.67
2019-05-17T13:44:46.403Z,8.17
2019-05-17T13:49:43.817Z,7.70
2019-05-17T13:59:57.172Z,7.97
2019-05-17T14:10:26.353Z,8.07
2019-05-17T14:20:25.668Z,9.53
2019-05-17T14:24:28.528Z,8.40
2019-05-17T14:29:25.894Z,10.27
2019-05-17T14:39:39.756Z,8.40
2019-05-17T14:44:37.384Z,10.73
2019-05-17T14:49:39.225Z,8.60
2019-05-17T14:59:50.538Z,7.63
2019-05-17T15:10:04.050Z,7.37
2019-05-17T15:15:01.505Z,8.00
2019-05-17T15:24:20.506Z,8.50
2019-05-17T15:34:34.206Z,7.50
2019-05-17T15:44:48.212Z,9.70
2019-05-17T15:49:46.025Z,9.40
2019-05-17T16:00:00.011Z,9.17
2019-05-17T16:10:13.368Z,9.90
2019-05-17T16:20:27.373Z,10.07
2019-05-17T16:24:30.401Z,7.70
2019-05-17T16:29:27.883Z,8.40
2019-05-17T16:39:41.631Z,9.40
2019-05-17T16:49:55.840Z,9.00
2019-05-17T17:05:01.532Z,8.83
2019-05-17T17:09:59.412Z,11.13
2019-05-17T17:20:13.298Z,8.90
2019-05-17T17:24:16.183Z,11.20
2019-05-17T17:34:30.095Z,7.80
2019-05-17T17:39:27.726Z,8.57
2019-05-17T17:44:25.248Z,8.40
2019-05-17T17:49:22.914Z,8.53
2019-05-17T17:59:36.513Z,11.97
2019-05-17T18:09:50.614Z,12.43
2019-05-17T18:20:06.467Z,12.10
2019-05-17T18:24:09.496Z,12.73
2019-05-17T18:29:08.098Z,12.27
2019-05-17T18:34:06.348Z,11.47
2019-05-17T18:44:27.031Z,14.03
2019-05-17T18:49:24.712Z,11.60
2019-05-17T18:59:20.854Z,16.93
2019-05-17T19:04:18.373Z,12.33
2019-05-17T19:14:42.465Z,14.90
2019-05-17T19:23:59.502Z,14.57
2019-05-17T19:28:57.153Z,17.23
2019-05-17T19:33:55.194Z,13.40
2019-05-17T19:44:09.101Z,14.83
2019-05-17T19:48:48.710Z,14.20
2019-05-17T19:53:46.499Z,12.53
2019-05-17T20:04:00.159Z,14.50
2019-05-17T20:14:13.945Z,16.77
2019-05-17T20:23:32.727Z,13.60
2019-05-17T20:28:30.530Z,14.80
2019-05-17T20:33:28.408Z,13.17
2019-05-17T20:43:42.299Z,16.60
2019-05-17T20:48:21.551Z,17.43
2019-05-17T20:53:19.560Z,19.00
2019-05-17T21:03:32.818Z,17.70
2019-05-17T21:08:44.826Z,18.00
2019-05-17T21:13:29.229Z,19.90
2019-05-17T21:22:47.247Z,22.37
2019-05-17T21:27:45.408Z,21.83
2019-05-17T21:32:42.963Z,22.30
2019-05-17T21:42:56.648Z,23.07
2019-05-17T21:47:36.117Z,25.50
2019-05-17T21:52:33.635Z,20.10
2019-05-17T22:02:47.335Z,26.13
2019-05-17T22:13:01.403Z,23.90
2019-05-17T22:22:39.694Z,22.80
2019-05-17T22:27:37.447Z,27.30
2019-05-17T22:37:51.352Z,23.33
2019-05-17T22:42:49.047Z,28.67
2019-05-17T22:53:02.239Z,27.10
2019-05-17T23:03:16.103Z,26.30
2019-05-17T23:13:29.750Z,27.63
2019-05-17T23:18:28.496Z,23.50
2019-05-17T23:22:52.474Z,23.30
2019-05-17T23:26:57.966Z,26.20
2019-05-17T23:31:55.626Z,24.70
2019-05-17T23:42:08.929Z,23.10
2019-05-17T23:52:21.384Z,25.83
